Time;durP1;ratioP1;P1;durP2;ratioP2;P2;SDS_P1;SDS_P2;PMS_P1;PMS_P2;Temp;Humidity;BMP_temperature;BMP_pressure;BME280_temperature;BME280_humidity;BME280_pressure;Samples;Min_cycle;Max_cycle;Signal;HPM_P1;HPM_P2
2023/01/28 06:33:34;;;;;;;78.90;28.52;;;-1.50;99.90;;;;;;7621200;19;20371;-77
2023/01/28 06:36:06;;;;;;;83.63;27.85;;;-1.50;99.90;;;;;;7631898;19;20018;-77
2023/01/28 06:38:38;;;;;;;76.05;29.80;;;-1.40;99.90;;;;;;7633058;19;20030;-77
2023/01/28 06:41:11;;;;;;;77.35;29.60;;;-1.40;99.90;;;;;;7625912;19;20022;-75
2023/01/28 06:43:43;;;;;;;80.78;29.77;;;-1.40;99.90;;;;;;7613566;19;20021;-75
2023/01/28 06:46:15;;;;;;;74.18;26.88;;;-1.30;99.90;;;;;;7609706;19;20010;-75
2023/01/28 06:48:47;;;;;;;71.55;28.73;;;-1.20;99.90;;;;;;7619578;19;20062;-75
2023/01/28 06:51:20;;;;;;;83.63;29.73;;;-1.10;99.90;;;;;;7598941;19;21072;-76
2023/01/28 06:53:51;;;;;;;71.35;28.25;;;-1.00;99.90;;;;;;7620171;19;20353;-77
2023/01/28 06:56:24;;;;;;;73.70;27.20;;;-0.90;99.90;;;;;;7626526;19;20010;-75
2023/01/28 06:58:57;;;;;;;66.60;25.67;;;-0.90;99.90;;;;;;7586680;19;21421;-76
2023/01/28 07:01:29;;;;;;;64.18;26.13;;;-0.80;99.90;;;;;;7607873;19;20018;-76
2023/01/28 07:04:02;;;;;;;68.05;27.17;;;-0.80;99.90;;;;;;7611388;19;21560;-76
2023/01/28 07:06:34;;;;;;;76.70;28.45;;;-0.80;99.90;;;;;;7621172;19;20022;-76
2023/01/28 07:09:06;;;;;;;72.68;28.08;;;-0.70;99.90;;;;;;7610784;19;20010;-76
2023/01/28 07:11:38;;;;;;;69.47;26.92;;;-0.70;99.90;;;;;;7624907;19;20032;-75
2023/01/28 07:14:10;;;;;;;67.80;26.27;;;-0.70;99.90;;;;;;7546563;19;20021;-78
2023/01/28 07:16:42;;;;;;;65.88;26.45;;;-0.60;99.90;;;;;;7612173;19;20022;-78
2023/01/28 07:19:15;;;;;;;70.68;27.63;;;-0.60;99.90;;;;;;7616122;19;20006;-79
2023/01/28 07:21:47;;;;;;;73.32;27.92;;;-0.60;99.90;;;;;;7620147;19;20538;-78
2023/01/28 07:24:19;;;;;;;62.28;26.35;;;-0.60;99.90;;;;;;7598083;19;20050;-80
2023/01/28 07:26:51;;;;;;;65.85;26.90;;;-0.60;99.90;;;;;;7619166;19;20022;-79
2023/01/28 07:29:23;;;;;;;65.47;26.83;;;-0.60;99.90;;;;;;7611618;19;20046;-79
2023/01/28 07:31:55;;;;;;;70.70;26.77;;;-0.60;99.90;;;;;;7641421;19;20018;-79
2023/01/28 07:34:27;;;;;;;68.03;26.85;;;-0.50;99.90;;;;;;7578745;19;20025;-79
2023/01/28 07:36:59;;;;;;;66.32;27.52;;;-0.50;99.90;;;;;;7581311;19;20010;-78
2023/01/28 07:39:31;;;;;;;73.15;27.85;;;-0.50;99.90;;;;;;7598603;19;20106;-80
2023/01/28 07:42:04;;;;;;;67.05;27.27;;;-0.50;99.90;;;;;;7565387;19;20014;-77
2023/01/28 07:44:40;;;;;;;66.63;28.13;;;-0.50;99.90;;;;;;7540894;19;20376;-79
2023/01/28 07:47:12;;;;;;;69.03;28.08;;;-0.50;99.90;;;;;;7577463;19;20782;-79
2023/01/28 07:49:45;;;;;;;73.75;30.85;;;-0.40;99.90;;;;;;7548242;19;20002;-79
2023/01/28 07:52:17;;;;;;;78.10;31.88;;;-0.50;99.90;;;;;;7580997;19;20010;-79
2023/01/28 07:54:56;;;;;;;75.67;29.87;;;-0.40;99.90;;;;;;7589320;19;20033;-79
2023/01/28 07:57:34;;;;;;;77.43;29.63;;;-0.40;99.90;;;;;;7573010;19;20085;-79
2023/01/28 08:00:07;;;;;;;68.82;28.17;;;-0.40;99.90;;;;;;7564397;19;20006;-80
2023/01/28 08:02:46;;;;;;;72.90;28.80;;;-0.50;99.90;;;;;;7552474;19;20022;-79
2023/01/28 08:05:20;;;;;;;63.85;26.52;;;-0.40;99.90;;;;;;7556593;19;20025;-80
2023/01/28 08:07:52;;;;;;;65.03;27.38;;;-0.50;99.90;;;;;;7592663;19;20014;-79
2023/01/28 08:10:25;;;;;;;67.30;28.10;;;-0.50;99.90;;;;;;7591573;19;20074;-80
2023/01/28 08:12:58;;;;;;;66.13;27.30;;;-0.50;99.90;;;;;;7568128;19;20035;-79
2023/01/28 08:15:31;;;;;;;66.97;26.93;;;-0.50;99.90;;;;;;7594051;19;20015;-79
2023/01/28 08:18:07;;;;;;;65.10;26.60;;;-0.40;99.90;;;;;;7578909;19;20162;-79
2023/01/28 08:20:40;;;;;;;60.83;25.90;;;-0.40;99.90;;;;;;7541015;19;20056;-79
2023/01/28 08:23:17;;;;;;;62.63;25.13;;;-0.40;99.90;;;;;;7515364;19;20021;-79
2023/01/28 08:25:52;;;;;;;61.10;24.70;;;-0.40;99.90;;;;;;7572072;19;20021;-79
2023/01/28 08:28:24;;;;;;;62.88;24.42;;;-0.40;99.90;;;;;;7584712;19;20484;-78
2023/01/28 08:30:59;;;;;;;62.22;26.13;;;-0.40;99.90;;;;;;7572869;19;20072;-80
2023/01/28 08:33:31;;;;;;;68.93;25.88;;;-0.40;99.90;;;;;;7557293;19;20014;-79
2023/01/28 08:36:04;;;;;;;63.58;25.50;;;-0.40;99.90;;;;;;7573565;19;20730;-78
2023/01/28 08:38:36;;;;;;;65.47;26.70;;;-0.40;99.90;;;;;;7548341;19;20651;-78
2023/01/28 08:41:10;;;;;;;62.28;25.58;;;-0.30;99.90;;;;;;7542293;19;20022;-79
2023/01/28 08:43:42;;;;;;;67.90;26.42;;;-0.40;99.90;;;;;;7586217;19;20777;-78
2023/01/28 08:46:15;;;;;;;68.93;27.27;;;-0.40;99.90;;;;;;7578875;19;20022;-80
2023/01/28 08:48:49;;;;;;;60.00;25.50;;;-0.30;99.90;;;;;;7566487;19;20007;-79
2023/01/28 08:51:21;;;;;;;58.28;25.77;;;-0.40;99.90;;;;;;7586164;19;20011;-79
2023/01/28 08:53:53;;;;;;;66.53;29.27;;;-0.30;99.90;;;;;;7538193;19;20014;-76
2023/01/28 08:56:25;;;;;;;77.32;34.47;;;-0.30;99.90;;;;;;7549677;19;20112;-75
2023/01/28 08:58:57;;;;;;;68.85;29.88;;;-0.30;99.90;;;;;;7546149;19;20020;-75
2023/01/28 09:01:29;;;;;;;64.10;27.63;;;-0.30;99.90;;;;;;7543170;19;20378;-75
2023/01/28 15:54:09;;;;;;;45.80;18.73;;;0.40;99.90;;;;;;7593784;19;20484;-77
2023/01/28 15:56:42;;;;;;;45.50;19.40;;;0.40;99.90;;;;;;7538496;19;20018;-71
2023/01/28 15:59:20;;;;;;;45.22;20.58;;;0.30;99.90;;;;;;7547447;19;20029;-76
2023/01/28 16:02:16;;;;;;;51.10;22.15;;;0.40;99.90;;;;;;7557664;19;20018;-76
2023/01/28 16:04:56;;;;;;;46.05;20.63;;;0.50;99.90;;;;;;7564371;19;20015;-76
2023/01/28 16:07:31;;;;;;;46.70;18.40;;;0.50;99.90;;;;;;7596260;19;20014;-77
2023/01/28 16:10:04;;;;;;;44.65;20.52;;;0.50;99.90;;;;;;7573644;19;20109;-74
2023/01/28 16:12:36;;;;;;;44.78;21.00;;;0.60;99.90;;;;;;7566687;19;20018;-76
2023/01/28 16:15:16;;;;;;;42.97;20.48;;;0.70;99.90;;;;;;7573668;19;20010;-77
2023/01/28 16:17:51;;;;;;;46.95;21.50;;;0.70;99.90;;;;;;7550739;19;21524;-76
2023/01/28 16:20:25;;;;;;;45.17;20.50;;;0.70;99.90;;;;;;7563472;19;20518;-75
2023/01/28 16:22:59;;;;;;;52.25;21.60;;;0.80;99.90;;;;;;7580811;19;21206;-76
2023/01/28 16:25:33;;;;;;;47.85;21.20;;;0.80;99.90;;;;;;7569858;19;20079;-76
2023/01/28 16:28:18;;;;;;;47.65;20.98;;;0.80;99.90;;;;;;7581404;19;20021;-77
2023/01/28 16:30:50;;;;;;;49.50;21.10;;;0.80;99.90;;;;;;7536638;19;20018;-76
2023/01/28 16:33:22;;;;;;;53.22;23.58;;;0.80;99.90;;;;;;7612580;19;20025;-77
2023/01/28 16:35:55;;;;;;;49.65;22.52;;;0.80;99.90;;;;;;7604891;19;20006;-77
2023/01/28 16:38:39;;;;;;;43.80;21.20;;;0.80;99.90;;;;;;7601198;19;20014;-76
2023/01/28 16:41:16;;;;;;;49.03;22.60;;;0.80;99.90;;;;;;7628391;19;20091;-75
2023/01/28 16:43:48;;;;;;;50.28;21.60;;;0.80;99.90;;;;;;7610633;19;20271;-77
2023/01/28 16:46:20;;;;;;;51.63;23.40;;;0.80;99.90;;;;;;7615539;19;20014;-75
2023/01/28 16:48:52;;;;;;;48.78;21.45;;;0.80;99.90;;;;;;7624695;19;20653;-75
2023/01/28 16:51:25;;;;;;;42.33;20.15;;;0.90;99.90;;;;;;7624898;19;20021;-75
2023/01/28 16:53:58;;;;;;;44.28;20.58;;;0.90;99.90;;;;;;7621145;19;20018;-75
2023/01/28 16:56:30;;;;;;;49.57;21.50;;;0.90;99.90;;;;;;7629519;19;20661;-75
2023/01/28 16:59:18;;;;;;;58.20;23.67;;;1.00;99.90;;;;;;7612563;19;20365;-76
2023/01/28 17:01:50;;;;;;;47.88;21.75;;;0.90;99.90;;;;;;7620121;19;20650;-75
2023/01/28 17:04:22;;;;;;;49.22;22.58;;;0.90;99.90;;;;;;7598222;19;20022;-76
2023/01/28 17:06:55;;;;;;;55.00;22.58;;;0.90;99.90;;;;;;7574780;19;21013;-76
2023/01/28 17:09:27;;;;;;;52.63;23.90;;;0.90;99.90;;;;;;7589618;19;20014;-79
2023/01/28 17:12:01;;;;;;;60.30;24.70;;;0.90;99.90;;;;;;7579922;19;20308;-79
2023/01/28 17:14:33;;;;;;;52.83;24.17;;;0.90;99.90;;;;;;7562557;19;20025;-79
2023/01/28 17:17:07;;;;;;;65.22;29.00;;;0.90;99.90;;;;;;7591782;19;20010;-79
2023/01/28 17:19:39;;;;;;;120.10;46.33;;;0.90;99.90;;;;;;7582765;19;20013;-80
2023/01/28 17:22:11;;;;;;;76.82;30.38;;;1.00;99.90;;;;;;7588594;19;20026;-79
2023/01/28 17:24:43;;;;;;;50.92;23.00;;;1.00;99.90;;;;;;7598817;19;20086;-81
2023/01/28 17:27:15;;;;;;;48.92;22.30;;;0.90;99.90;;;;;;7585238;19;20082;-80
2023/01/28 17:29:47;;;;;;;50.90;22.90;;;0.90;99.90;;;;;;7545951;19;20019;-79
2023/01/28 17:32:20;;;;;;;52.65;23.40;;;0.90;99.90;;;;;;7574596;19;20455;-77
2023/01/28 17:34:52;;;;;;;110.13;45.88;;;1.00;99.90;;;;;;7585426;19;20093;-77
2023/01/28 17:37:24;;;;;;;82.63;33.40;;;0.90;99.90;;;;;;7585873;19;20011;-77
2023/01/28 17:39:56;;;;;;;55.88;24.67;;;0.90;99.90;;;;;;7575241;19;20011;-77
2023/01/28 17:42:28;;;;;;;62.75;25.77;;;0.90;99.90;;;;;;7567448;19;20014;-79
2023/01/28 17:45:02;;;;;;;73.50;30.90;;;0.90;99.90;;;;;;7570611;19;20535;-79
2023/01/28 17:47:34;;;;;;;52.50;23.60;;;0.90;99.90;;;;;;7542657;19;20082;-80
2023/01/28 17:50:06;;;;;;;66.05;27.80;;;0.90;99.90;;;;;;7592362;19;20026;-80
2023/01/28 17:52:40;;;;;;;100.63;41.63;;;0.90;99.90;;;;;;7090763;19;9999694;-80
2023/01/28 17:55:12;;;;;;;69.30;28.90;;;0.90;99.90;;;;;;7585543;19;20100;-80
2023/01/28 17:57:44;;;;;;;55.25;23.80;;;0.90;99.90;;;;;;7570654;19;20014;-78
2023/01/28 18:00:18;;;;;;;48.40;21.30;;;0.90;99.90;;;;;;7579761;19;20026;-79
2023/01/28 18:02:51;;;;;;;52.30;22.90;;;0.80;99.90;;;;;;7587901;19;20032;-79
2023/01/28 18:05:23;;;;;;;52.85;22.92;;;0.80;99.90;;;;;;7596531;19;20038;-78
2023/01/28 18:07:55;;;;;;;47.15;21.25;;;0.90;99.90;;;;;;7563646;19;21669;-81
2023/01/28 18:10:28;;;;;;;51.45;21.60;;;0.80;99.90;;;;;;7561919;19;20066;-78
2023/01/28 18:13:00;;;;;;;52.38;22.98;;;0.80;99.90;;;;;;7574849;19;20014;-80
2023/01/28 18:15:33;;;;;;;57.75;25.92;;;0.80;99.90;;;;;;7515046;19;20064;-78
2023/01/28 18:18:06;;;;;;;52.45;23.10;;;0.80;99.90;;;;;;7546660;19;21149;-78
2023/01/28 18:20:39;;;;;;;51.17;23.48;;;0.80;99.90;;;;;;7554791;19;20098;-78
2023/01/28 18:23:11;;;;;;;56.63;25.85;;;0.80;99.90;;;;;;7589299;19;20844;-78
2023/01/28 18:25:43;;;;;;;50.33;23.90;;;0.80;99.90;;;;;;7551858;19;20021;-77
2023/01/28 18:28:15;;;;;;;51.65;22.50;;;0.70;99.90;;;;;;7580456;19;20011;-79
2023/01/28 18:30:47;;;;;;;54.83;25.17;;;0.70;99.90;;;;;;7588072;19;20053;-79
2023/01/28 18:33:21;;;;;;;51.50;25.00;;;0.70;99.90;;;;;;7600063;19;20028;-78
2023/01/28 18:35:53;;;;;;;50.15;24.15;;;0.80;99.90;;;;;;6552537;19;10000565;-79
2023/01/28 18:38:24;;;;;;;53.60;24.95;;;0.80;99.90;;;;;;7552476;19;20379;-79
2023/01/28 18:40:56;;;;;;;60.72;27.60;;;0.80;99.90;;;;;;7552967;19;20822;-80
2023/01/28 18:43:31;;;;;;;59.95;26.98;;;0.80;99.90;;;;;;7577143;19;20045;-79
2023/01/28 18:46:10;;;;;;;67.20;28.95;;;0.80;99.90;;;;;;7574597;19;20570;-80
2023/01/28 18:48:42;;;;;;;62.17;27.10;;;0.70;99.90;;;;;;7573050;19;20025;-79
2023/01/28 18:51:15;;;;;;;63.15;28.73;;;0.80;99.90;;;;;;7585913;19;20041;-80
2023/01/28 18:54:04;;;;;;;58.63;26.13;;;0.80;99.90;;;;;;7577225;19;20018;-78
2023/01/28 18:56:36;;;;;;;56.83;25.08;;;0.70;99.90;;;;;;7587105;19;20109;-79
2023/01/28 18:59:11;;;;;;;63.90;27.35;;;0.70;99.90;;;;;;7568289;19;20387;-79
2023/01/28 19:01:43;;;;;;;57.92;25.45;;;0.80;99.90;;;;;;7558887;19;20018;-80
2023/01/28 19:04:17;;;;;;;59.03;25.15;;;0.80;99.90;;;;;;7557944;19;20018;-78
2023/01/28 19:06:49;;;;;;;52.85;25.35;;;0.80;99.90;;;;;;7569651;19;20014;-77
2023/01/28 19:09:21;;;;;;;53.17;23.75;;;0.80;99.90;;;;;;7560632;19;20021;-78
2023/01/28 19:11:53;;;;;;;50.33;23.10;;;0.80;99.90;;;;;;7561650;19;20014;-78
2023/01/28 19:14:25;;;;;;;59.90;26.13;;;0.80;99.90;;;;;;7573708;19;20019;-79
2023/01/28 19:16:58;;;;;;;54.85;23.48;;;0.80;99.90;;;;;;7563691;19;20010;-79
2023/01/28 19:19:30;;;;;;;57.28;24.27;;;0.90;99.90;;;;;;7545583;19;20018;-79
2023/01/28 19:22:03;;;;;;;59.92;24.75;;;0.90;99.90;;;;;;7557177;19;20018;-77
2023/01/28 19:24:35;;;;;;;53.17;23.05;;;0.90;99.90;;;;;;7568373;19;20121;-78
2023/01/28 19:27:07;;;;;;;50.20;21.58;;;0.90;99.90;;;;;;7556088;19;20190;-78
2023/01/28 19:29:39;;;;;;;57.13;24.60;;;1.00;99.90;;;;;;7574810;19;20682;-79
2023/01/28 19:32:11;;;;;;;53.65;22.25;;;0.90;99.90;;;;;;7550627;19;20022;-79
2023/01/28 19:34:43;;;;;;;53.85;24.23;;;0.90;99.90;;;;;;7567650;19;20011;-79
2023/01/28 19:37:15;;;;;;;60.88;24.42;;;0.90;99.90;;;;;;7551347;19;20014;-79
2023/01/28 19:39:48;;;;;;;60.00;24.63;;;0.80;99.90;;;;;;7582350;19;20523;-78
2023/01/28 19:42:20;;;;;;;60.83;28.27;;;0.80;99.90;;;;;;7553704;19;20034;-78
2023/01/28 19:44:52;;;;;;;58.00;24.35;;;0.80;99.90;;;;;;7552965;19;20018;-79
2023/01/28 19:47:24;;;;;;;61.70;26.17;;;0.80;99.90;;;;;;7555665;19;20059;-79
2023/01/28 19:49:56;;;;;;;58.97;25.27;;;0.80;99.90;;;;;;7582514;19;20021;-79
2023/01/28 19:52:29;;;;;;;61.92;26.05;;;0.80;99.90;;;;;;7580815;19;20022;-79
2023/01/28 19:55:02;;;;;;;62.85;25.63;;;0.70;99.90;;;;;;7574431;19;20102;-78
2023/01/28 19:57:34;;;;;;;59.60;25.23;;;0.70;99.90;;;;;;7564292;19;20658;-78
2023/01/28 20:00:08;;;;;;;58.95;25.48;;;0.80;99.90;;;;;;7567537;19;20396;-78
2023/01/28 20:02:40;;;;;;;60.10;25.50;;;0.80;99.90;;;;;;7579130;19;20010;-78
2023/01/28 20:05:12;;;;;;;59.30;24.88;;;0.80;99.90;;;;;;7581252;19;20018;-79
2023/01/28 20:07:44;;;;;;;64.75;26.15;;;0.80;99.90;;;;;;7583275;19;20070;-79
2023/01/28 20:10:17;;;;;;;62.80;25.15;;;0.80;99.90;;;;;;7618864;19;20436;-78
2023/01/28 20:12:49;;;;;;;60.88;25.40;;;0.80;99.90;;;;;;7585229;19;20014;-77
2023/01/28 20:15:21;;;;;;;63.60;25.25;;;0.80;99.90;;;;;;7591551;19;20039;-77
2023/01/28 20:17:53;;;;;;;67.35;27.52;;;0.70;99.90;;;;;;7592295;19;20602;-79
2023/01/28 20:20:25;;;;;;;55.90;25.20;;;0.80;99.90;;;;;;7596627;19;19999;-79
2023/01/28 20:22:57;;;;;;;59.45;25.77;;;0.80;99.90;;;;;;7605502;19;20178;-78
2023/01/28 20:25:31;;;;;;;47.38;21.23;;;0.70;99.90;;;;;;7607445;19;20019;-79
2023/01/28 20:28:03;;;;;;;64.72;26.17;;;0.70;99.90;;;;;;7587557;19;20015;-79
2023/01/28 20:30:36;;;;;;;67.77;26.93;;;0.70;99.90;;;;;;7604727;19;20101;-77
2023/01/28 20:33:08;;;;;;;65.97;25.58;;;0.70;99.90;;;;;;7608940;19;20010;-78
2023/01/28 20:35:41;;;;;;;68.97;27.35;;;0.70;99.90;;;;;;7603184;19;20018;-80
2023/01/28 20:38:13;;;;;;;62.70;26.20;;;0.70;99.90;;;;;;7585127;19;20039;-79
2023/01/28 20:40:46;;;;;;;73.55;30.65;;;0.70;99.90;;;;;;7598936;19;20010;-79
2023/01/28 20:43:19;;;;;;;61.65;26.58;;;0.70;99.90;;;;;;7610050;19;20137;-78
2023/01/28 20:45:51;;;;;;;84.35;37.28;;;0.80;99.90;;;;;;7605316;19;20023;-77
2023/01/28 20:48:23;;;;;;;77.40;31.17;;;0.70;99.90;;;;;;7587185;19;20011;-78
2023/01/28 20:50:55;;;;;;;95.40;39.78;;;0.70;99.90;;;;;;7597694;19;20026;-77
2023/01/28 20:53:27;;;;;;;86.57;37.55;;;0.70;99.90;;;;;;7597787;19;20107;-84
2023/01/28 20:56:00;;;;;;;72.43;30.90;;;0.70;99.90;;;;;;7562458;19;20011;-78
